createdAt,value
2018-09-27T00:01:57.766Z,7.83
2018-09-27T00:04:32.078Z,7.83
2018-09-27T00:07:06.526Z,7.77
2018-09-27T00:09:40.827Z,6.77
2018-09-27T00:12:15.163Z,7.60
2018-09-27T00:14:49.314Z,6.20
2018-09-27T00:17:23.773Z,6.10
2018-09-27T00:19:58.080Z,5.27
2018-09-27T00:22:32.374Z,11.10
2018-09-27T00:25:06.622Z,7.80
2018-09-27T00:27:40.954Z,5.97
2018-09-27T00:30:15.287Z,7.00
2018-09-27T00:32:49.630Z,6.07
2018-09-27T00:35:23.902Z,6.30
2018-09-27T00:37:58.271Z,6.00
2018-09-27T00:40:32.446Z,10.20
2018-09-27T00:43:06.867Z,8.47
2018-09-27T00:45:42.952Z,8.90
2018-09-27T00:48:17.589Z,4.40
2018-09-27T00:50:51.841Z,7.10
2018-09-27T00:53:26.139Z,5.00
2018-09-27T00:56:00.994Z,5.93
2018-09-27T00:58:35.350Z,9.00
2018-09-27T01:01:09.958Z,8.57
2018-09-27T01:03:44.293Z,12.43
2018-09-27T01:06:18.474Z,5.87
2018-09-27T01:08:53.266Z,8.70
2018-09-27T01:11:27.437Z,6.03
2018-09-27T01:14:01.746Z,4.10
2018-09-27T01:16:36.018Z,8.60
2018-09-27T01:19:10.438Z,6.37
2018-09-27T01:21:44.750Z,5.70
2018-09-27T01:24:19.043Z,10.10
2018-09-27T01:26:53.242Z,11.20
2018-09-27T01:29:27.563Z,7.17
2018-09-27T01:32:01.734Z,9.20
2018-09-27T01:34:36.042Z,5.67
2018-09-27T01:37:10.446Z,6.80
2018-09-27T01:39:44.747Z,7.03
2018-09-27T01:42:19.082Z,6.67
2018-09-27T01:44:53.301Z,6.70
2018-09-27T01:47:27.634Z,6.57
2018-09-27T01:50:01.910Z,5.73
2018-09-27T01:52:36.170Z,9.90
2018-09-27T01:55:10.316Z,8.93
2018-09-27T01:57:44.742Z,10.40
2018-09-27T02:00:19.165Z,11.87
2018-09-27T02:02:53.466Z,11.80
2018-09-27T02:05:27.758Z,14.87
2018-09-27T02:08:02.027Z,14.33
2018-09-27T02:10:36.318Z,8.17
2018-09-27T02:13:10.751Z,11.60
2018-09-27T02:15:45.001Z,31.80
2018-09-27T02:18:19.210Z,112.67
2018-09-27T02:20:53.738Z,47.73
2018-09-27T02:23:28.047Z,34.63
2018-09-27T02:26:02.330Z,33.77
2018-09-27T02:28:36.782Z,37.13
2018-09-27T02:31:11.086Z,41.57
2018-09-27T02:33:45.386Z,75.43
2018-09-27T02:36:19.670Z,40.17
2018-09-27T02:38:54.001Z,14.50
2018-09-27T02:41:28.307Z,16.10
2018-09-27T02:44:02.478Z,13.83
2018-09-27T02:46:36.664Z,31.20
2018-09-27T02:49:10.962Z,15.53
2018-09-27T02:51:45.242Z,21.60
2018-09-27T02:54:19.594Z,45.87
2018-09-27T02:56:53.999Z,25.73
2018-09-27T02:59:28.257Z,11.03
2018-09-27T03:02:02.650Z,10.00
2018-09-27T03:04:36.902Z,11.33
2018-09-27T03:07:11.251Z,12.27
2018-09-27T03:09:45.564Z,10.20
2018-09-27T03:12:19.741Z,11.73
2018-09-27T03:14:54.071Z,8.70
2018-09-27T03:17:28.376Z,9.47
2018-09-27T03:20:02.753Z,13.67
2018-09-27T03:22:36.909Z,14.43
2018-09-27T03:25:11.249Z,9.10
2018-09-27T03:27:45.695Z,8.00
2018-09-27T03:30:20.069Z,8.87
2018-09-27T03:32:54.303Z,12.47
2018-09-27T03:35:28.598Z,8.17
2018-09-27T03:38:02.861Z,9.43
2018-09-27T03:40:37.272Z,11.03
2018-09-27T03:43:11.434Z,9.07
2018-09-27T03:45:45.937Z,7.27
2018-09-27T03:48:20.318Z,9.60
2018-09-27T03:50:54.655Z,11.03
2018-09-27T03:53:28.845Z,10.40
2018-09-27T03:56:03.190Z,9.70
2018-09-27T03:58:37.464Z,8.93
2018-09-27T04:01:11.690Z,10.30
2018-09-27T04:03:46.118Z,12.55
2018-09-27T04:06:20.446Z,11.07
2018-09-27T04:08:54.807Z,11.23
2018-09-27T04:11:28.994Z,9.73
2018-09-27T04:14:03.348Z,12.77
2018-09-27T04:16:37.874Z,12.33
2018-09-27T04:19:12.186Z,12.27
2018-09-27T04:21:46.542Z,8.20
2018-09-27T04:24:20.923Z,11.77
2018-09-27T04:26:55.143Z,11.23
2018-09-27T04:29:29.347Z,10.57
2018-09-27T04:32:03.666Z,12.87
2018-09-27T04:34:37.874Z,13.43
2018-09-27T04:37:12.063Z,9.47
2018-09-27T04:39:46.421Z,13.83
2018-09-27T04:42:20.846Z,10.70
2018-09-27T04:44:55.182Z,11.97
2018-09-27T04:47:29.494Z,9.30
2018-09-27T04:50:03.889Z,10.40
2018-09-27T04:52:38.254Z,10.10
2018-09-27T04:55:12.562Z,11.70
2018-09-27T04:57:46.970Z,10.03
2018-09-27T05:00:21.459Z,12.60
2018-09-27T05:02:55.679Z,13.77
2018-09-27T05:05:29.954Z,10.03
2018-09-27T05:08:04.129Z,14.80
2018-09-27T05:10:38.562Z,12.43
2018-09-27T05:13:12.870Z,13.80
2018-09-27T05:15:47.327Z,15.43
2018-09-27T05:18:21.642Z,11.73
2018-09-27T05:20:56.043Z,16.73
2018-09-27T05:23:30.374Z,10.90
2018-09-27T05:26:04.709Z,14.00
2018-09-27T05:28:39.193Z,11.63
2018-09-27T05:31:13.463Z,15.47
2018-09-27T05:33:47.889Z,10.07
2018-09-27T05:36:22.198Z,12.87
2018-09-27T05:38:56.391Z,12.07
2018-09-27T05:41:30.688Z,10.33
2018-09-27T05:44:05.079Z,10.43
2018-09-27T05:46:39.370Z,11.63
2018-09-27T05:49:13.650Z,19.87
2018-09-27T05:51:48.030Z,19.70
2018-09-27T05:54:22.240Z,12.47
2018-09-27T05:56:56.538Z,11.37
2018-09-27T05:59:30.715Z,9.77
2018-09-27T06:02:04.981Z,10.43
2018-09-27T06:04:39.230Z,9.87
2018-09-27T06:07:13.626Z,9.83
2018-09-27T06:09:47.943Z,11.13
2018-09-27T06:12:22.114Z,9.70
2018-09-27T06:14:56.479Z,13.60
2018-09-27T06:17:30.695Z,11.60
2018-09-27T06:20:04.914Z,10.80
2018-09-27T06:22:39.219Z,14.37
2018-09-27T06:25:13.382Z,12.20
2018-09-27T06:27:47.742Z,11.37
2018-09-27T06:30:22.234Z,15.70
2018-09-27T06:32:56.551Z,13.30
2018-09-27T06:35:30.879Z,13.27
2018-09-27T06:38:05.318Z,17.13
2018-09-27T06:40:39.783Z,12.47
2018-09-27T06:43:14.196Z,10.63
2018-09-27T06:45:48.451Z,13.93
2018-09-27T06:48:22.752Z,13.10
2018-09-27T06:50:56.852Z,20.17
2018-09-27T06:53:31.275Z,15.67
2018-09-27T06:56:05.879Z,15.27
2018-09-27T06:58:40.284Z,10.53
2018-09-27T07:01:14.562Z,8.30
2018-09-27T07:03:48.743Z,10.80
2018-09-27T07:06:23.011Z,14.13
2018-09-27T07:08:57.410Z,11.97
2018-09-27T07:11:31.581Z,13.80
2018-09-27T07:14:05.998Z,9.83
2018-09-27T07:16:40.430Z,13.23
2018-09-27T07:19:14.862Z,14.17
2018-09-27T07:21:49.094Z,13.50
2018-09-27T07:24:23.474Z,9.77
2018-09-27T07:26:57.949Z,12.47
2018-09-27T07:29:32.137Z,13.53
2018-09-27T07:32:06.534Z,10.80
2018-09-27T07:34:40.729Z,10.87
2018-09-27T07:37:15.010Z,13.43
2018-09-27T07:39:49.318Z,17.23
2018-09-27T07:42:23.650Z,10.77
2018-09-27T07:44:58.047Z,11.20
2018-09-27T07:47:32.454Z,13.60
2018-09-27T07:50:06.635Z,12.93
2018-09-27T07:52:40.967Z,12.10
2018-09-27T07:55:15.171Z,12.23
2018-09-27T07:57:49.544Z,11.57
2018-09-27T08:00:23.946Z,14.47
2018-09-27T08:02:58.311Z,14.47
2018-09-27T08:05:32.811Z,17.67
2018-09-27T08:08:07.311Z,12.50
2018-09-27T08:10:57.198Z,13.37
2018-09-27T08:19:28.183Z,9.17
2018-09-27T08:24:23.239Z,11.80
2018-09-27T08:26:57.672Z,12.23
2018-09-27T08:29:31.963Z,14.60
2018-09-27T08:35:05.686Z,15.10
2018-09-27T08:46:53.272Z,14.70
2018-09-27T08:52:30.894Z,14.03
2018-09-27T08:55:05.442Z,13.30
2018-09-27T08:57:40.091Z,14.07
2018-09-27T09:00:14.419Z,13.27
2018-09-27T09:02:48.967Z,12.70
2018-09-27T09:05:23.218Z,11.83
2018-09-27T09:07:57.402Z,12.83
2018-09-27T09:10:31.670Z,13.27
2018-09-27T09:13:10.250Z,17.97
2018-09-27T09:15:44.448Z,19.00
2018-09-27T09:18:18.753Z,14.90
2018-09-27T09:20:53.034Z,13.53
2018-09-27T09:23:27.343Z,13.60
2018-09-27T09:26:04.366Z,18.63
2018-09-27T09:28:44.221Z,12.87
2018-09-27T09:31:45.906Z,15.00
2018-09-27T09:34:20.234Z,17.23
2018-09-27T09:36:54.667Z,16.87
2018-09-27T09:39:28.858Z,15.50
2018-09-27T09:42:03.097Z,18.27
2018-09-27T09:48:09.436Z,11.57
2018-09-27T09:50:43.646Z,16.27
2018-09-27T09:53:18.070Z,17.13
2018-09-27T09:55:52.430Z,12.23
2018-09-27T09:58:26.707Z,17.57
2018-09-27T10:01:00.930Z,13.03
2018-09-27T10:03:35.229Z,15.47
2018-09-27T10:06:09.520Z,12.93
2018-09-27T10:08:52.367Z,13.10
2018-09-27T10:11:26.800Z,12.50
2018-09-27T10:17:01.303Z,12.97
2018-09-27T10:19:35.507Z,11.17
2018-09-27T10:22:09.819Z,11.90
2018-09-27T10:24:44.097Z,12.37
2018-09-27T10:27:18.481Z,7.23
2018-09-27T10:29:52.719Z,8.40
2018-09-27T10:32:27.069Z,9.00
2018-09-27T10:35:01.227Z,9.23
2018-09-27T10:37:35.546Z,7.47
2018-09-27T10:40:09.734Z,8.97
2018-09-27T10:42:44.021Z,11.50
2018-09-27T10:45:18.298Z,12.10
2018-09-27T10:47:52.527Z,9.00
2018-09-27T10:50:26.806Z,5.83
2018-09-27T10:53:01.110Z,4.67
2018-09-27T10:55:35.293Z,6.90
2018-09-27T10:58:09.622Z,8.27
2018-09-27T11:00:44.018Z,4.83
2018-09-27T11:03:18.322Z,10.33
2018-09-27T11:05:52.650Z,5.67
2018-09-27T11:08:27.078Z,6.03
2018-09-27T11:11:01.455Z,7.07
2018-09-27T11:13:35.914Z,4.90
2018-09-27T11:16:10.147Z,8.33
2018-09-27T11:18:44.446Z,6.43
2018-09-27T11:21:18.871Z,6.43
2018-09-27T11:23:53.184Z,6.70
2018-09-27T11:26:27.458Z,7.07
2018-09-27T11:29:07.207Z,7.17
2018-09-27T11:31:46.931Z,6.87
2018-09-27T11:34:21.176Z,6.03
2018-09-27T11:36:55.351Z,6.60
2018-09-27T11:39:29.706Z,4.43
2018-09-27T11:42:03.876Z,5.73
2018-09-27T11:44:38.510Z,8.57
2018-09-27T11:47:13.077Z,5.77
2018-09-27T11:49:47.550Z,4.23
2018-09-27T11:52:21.775Z,3.13
2018-09-27T11:54:55.978Z,3.57
2018-09-27T11:57:30.321Z,2.93
2018-09-27T12:00:04.722Z,3.57
2018-09-27T12:02:39.127Z,3.23
2018-09-27T12:05:13.478Z,2.37
2018-09-27T12:07:47.763Z,6.20
2018-09-27T12:10:21.938Z,5.40
2018-09-27T12:12:56.544Z,8.97
2018-09-27T12:15:31.033Z,3.90
2018-09-27T12:18:05.361Z,4.93
2018-09-27T12:20:39.654Z,3.93
2018-09-27T12:23:13.994Z,8.50
2018-09-27T12:25:48.411Z,8.33
2018-09-27T12:28:22.687Z,5.47
2018-09-27T12:30:56.937Z,9.17
2018-09-27T12:33:31.137Z,8.13
2018-09-27T12:36:05.477Z,3.97
2018-09-27T12:38:39.890Z,5.53
2018-09-27T12:41:14.166Z,4.60
2018-09-27T12:43:48.509Z,6.53
2018-09-27T12:46:22.891Z,6.53
2018-09-27T12:48:57.190Z,5.70
2018-09-27T12:51:31.536Z,5.33
2018-09-27T12:54:05.621Z,7.30
2018-09-27T12:56:39.816Z,5.10
2018-09-27T12:59:13.991Z,6.03
2018-09-27T13:01:48.395Z,5.20
2018-09-27T13:04:22.694Z,5.90
2018-09-27T13:06:56.964Z,7.93
2018-09-27T13:09:31.269Z,4.10
2018-09-27T13:12:05.519Z,5.27
2018-09-27T13:14:39.813Z,5.37
2018-09-27T13:17:14.032Z,6.10
2018-09-27T13:19:48.237Z,7.97
2018-09-27T13:22:22.476Z,6.20
2018-09-27T13:24:56.865Z,3.67
2018-09-27T13:27:31.418Z,6.77
2018-09-27T13:30:05.938Z,4.63
2018-09-27T13:32:40.160Z,4.40
2018-09-27T13:35:14.527Z,5.47
2018-09-27T13:37:48.670Z,4.83
2018-09-27T13:40:23.003Z,5.97
2018-09-27T13:42:57.390Z,3.90
2018-09-27T13:45:31.694Z,4.90
2018-09-27T13:48:05.967Z,4.73
2018-09-27T13:50:40.326Z,7.57
2018-09-27T13:53:14.530Z,5.67
2018-09-27T13:55:50.819Z,5.63
2018-09-27T13:58:26.531Z,6.87
2018-09-27T14:12:20.331Z,3.20
2018-09-27T14:24:04.003Z,6.30
2018-09-27T14:26:38.271Z,4.57
2018-09-27T14:29:12.449Z,7.03
2018-09-27T14:31:46.782Z,6.13
2018-09-27T14:34:21.003Z,5.83
2018-09-27T14:36:55.194Z,8.03
2018-09-27T14:39:51.959Z,8.23
2018-09-27T14:45:51.746Z,8.00
2018-09-27T14:48:25.932Z,7.77
2018-09-27T14:51:00.187Z,6.03
2018-09-27T14:53:34.462Z,7.10
2018-09-27T14:56:08.978Z,6.47
2018-09-27T14:58:43.380Z,7.93
2018-09-27T15:01:17.578Z,5.53
2018-09-27T15:03:51.902Z,6.10
2018-09-27T15:06:26.175Z,6.90
2018-09-27T15:09:00.538Z,8.53
2018-09-27T15:11:34.851Z,6.70
2018-09-27T15:14:09.078Z,6.67
2018-09-27T15:16:43.428Z,4.57
2018-09-27T15:19:17.659Z,5.33
2018-09-27T15:21:51.941Z,5.53
2018-09-27T15:24:26.319Z,7.87
2018-09-27T15:27:00.519Z,6.07
2018-09-27T15:29:34.825Z,6.40
2018-09-27T15:32:09.168Z,9.73
2018-09-27T15:34:43.463Z,7.27
2018-09-27T15:37:17.771Z,11.90
2018-09-27T15:39:52.051Z,9.10
2018-09-27T15:42:26.218Z,4.53
2018-09-27T15:45:02.272Z,7.47
2018-09-27T15:47:36.650Z,5.93
2018-09-27T15:50:10.958Z,6.70
2018-09-27T15:52:45.438Z,8.00
2018-09-27T15:55:19.806Z,6.70
2018-09-27T15:57:54.070Z,8.13
2018-09-27T16:00:28.445Z,7.37
2018-09-27T16:03:02.754Z,7.47
2018-09-27T16:05:36.971Z,5.00
2018-09-27T16:08:11.167Z,10.63
2018-09-27T16:10:45.430Z,6.57
2018-09-27T16:13:36.782Z,10.13
2018-09-27T16:16:10.955Z,8.30
2018-09-27T16:18:45.150Z,9.37
2018-09-27T16:21:19.507Z,10.27
2018-09-27T16:23:53.782Z,5.73
2018-09-27T16:26:28.204Z,10.67
2018-09-27T16:29:02.614Z,7.93
2018-09-27T16:31:36.971Z,5.67
2018-09-27T16:34:11.215Z,6.97
2018-09-27T16:36:45.503Z,6.37
2018-09-27T16:39:19.846Z,6.30
2018-09-27T16:41:54.171Z,7.03
2018-09-27T16:44:28.339Z,6.60
2018-09-27T16:47:02.670Z,6.00
2018-09-27T16:49:36.838Z,3.03
2018-09-27T16:52:11.211Z,5.87
2018-09-27T16:54:45.542Z,5.77
2018-09-27T16:57:19.726Z,4.70
2018-09-27T16:59:54.051Z,6.20
2018-09-27T17:02:28.386Z,4.27
2018-09-27T17:05:02.587Z,22.17
2018-09-27T17:07:36.915Z,10.57
2018-09-27T17:10:11.250Z,5.27
2018-09-27T17:12:45.718Z,3.90
2018-09-27T17:15:19.885Z,4.30
2018-09-27T17:17:54.578Z,5.17
2018-09-27T17:20:28.986Z,3.47
2018-09-27T17:23:03.287Z,5.60
2018-09-27T17:25:37.574Z,6.53
2018-09-27T17:28:11.914Z,4.23
2018-09-27T17:30:46.203Z,8.13
2018-09-27T17:33:20.491Z,7.13
2018-09-27T17:35:54.886Z,8.27
2018-09-27T17:38:29.147Z,5.47
2018-09-27T17:41:03.594Z,4.93
2018-09-27T17:43:38.070Z,4.50
2018-09-27T17:58:42.317Z,3.90
2018-09-27T18:01:16.660Z,6.23
2018-09-27T18:03:54.215Z,6.60
2018-09-27T18:06:37.233Z,5.50
2018-09-27T18:09:12.846Z,8.43
2018-09-27T18:11:47.120Z,8.67
2018-09-27T18:14:21.306Z,6.17
2018-09-27T18:16:55.644Z,5.60
2018-09-27T18:19:29.843Z,6.50
2018-09-27T18:22:04.078Z,9.40
2018-09-27T18:24:38.291Z,8.13
2018-09-27T18:27:12.502Z,3.27
2018-09-27T18:29:46.809Z,6.20
2018-09-27T18:32:21.136Z,6.80
2018-09-27T18:34:55.374Z,6.03
2018-09-27T18:37:29.960Z,4.70
2018-09-27T18:40:04.649Z,9.27
2018-09-27T18:42:39.015Z,4.03
2018-09-27T18:45:13.335Z,6.10
2018-09-27T18:47:47.666Z,7.07
2018-09-27T18:50:21.952Z,9.30
2018-09-27T18:52:56.327Z,6.97
2018-09-27T18:55:30.633Z,8.53
2018-09-27T18:58:04.871Z,5.20
2018-09-27T19:00:39.024Z,4.13
2018-09-27T19:03:13.383Z,4.80
2018-09-27T19:05:47.660Z,4.30
2018-09-27T19:08:21.854Z,10.03
2018-09-27T19:10:57.617Z,10.20
2018-09-27T19:13:31.935Z,7.53
2018-09-27T19:39:36.051Z,6.97
2018-09-27T19:42:10.571Z,5.13
2018-09-27T19:58:16.818Z,5.03
2018-09-27T20:00:50.934Z,4.17
2018-09-27T20:03:25.094Z,4.87
2018-09-27T20:05:59.902Z,4.55
2018-09-27T20:09:00.546Z,17.60
2018-09-27T20:11:34.830Z,11.57
2018-09-27T20:14:09.143Z,15.13
2018-09-27T20:16:43.380Z,6.47
2018-09-27T20:19:17.514Z,4.13
2018-09-27T20:21:51.666Z,6.00
2018-09-27T20:24:25.922Z,4.93
2018-09-27T20:27:00.126Z,8.37
2018-09-27T20:29:34.275Z,4.77
2018-09-27T20:32:08.703Z,9.23
2018-09-27T20:34:43.016Z,4.70
2018-09-27T20:37:17.219Z,3.90
2018-09-27T20:39:51.471Z,5.17
2018-09-27T20:42:25.621Z,8.40
2018-09-27T20:44:59.903Z,6.40
2018-09-27T20:47:34.191Z,4.70
2018-09-27T20:50:08.407Z,3.23
2018-09-27T20:52:42.561Z,6.27
2018-09-27T20:55:16.818Z,6.70
2018-09-27T20:57:51.043Z,4.17
2018-09-27T21:00:25.294Z,3.50
2018-09-27T21:02:59.629Z,3.83
2018-09-27T21:05:33.809Z,4.10
2018-09-27T21:08:08.035Z,5.73
2018-09-27T21:10:42.282Z,7.27
2018-09-27T21:13:16.586Z,4.83
2018-09-27T21:15:51.058Z,5.53
2018-09-27T21:18:25.217Z,5.30
2018-09-27T21:20:59.495Z,5.63
2018-09-27T21:23:33.774Z,4.03
2018-09-27T21:26:07.998Z,7.90
2018-09-27T21:28:42.251Z,6.37
2018-09-27T21:31:16.534Z,7.37
2018-09-27T21:33:50.798Z,8.83
2018-09-27T21:36:25.082Z,3.93
2018-09-27T21:38:59.370Z,4.67
2018-09-27T21:41:33.582Z,6.93
2018-09-27T21:44:07.731Z,8.93
2018-09-27T21:46:41.934Z,7.47
2018-09-27T21:49:16.098Z,6.87
2018-09-27T21:51:50.339Z,5.47
2018-09-27T21:54:24.593Z,8.50
2018-09-27T21:56:58.866Z,5.80
2018-09-27T21:59:33.024Z,9.30
2018-09-27T22:02:07.435Z,6.53
2018-09-27T22:04:41.582Z,4.87
2018-09-27T22:07:15.862Z,5.73
2018-09-27T22:09:50.122Z,5.70
2018-09-27T22:12:24.391Z,9.07
2018-09-27T22:14:58.649Z,8.13
2018-09-27T22:17:32.901Z,10.80
2018-09-27T22:20:07.167Z,8.83
2018-09-27T22:22:41.410Z,6.27
2018-09-27T22:25:15.570Z,7.97
2018-09-27T22:27:49.918Z,5.70
2018-09-27T22:30:24.106Z,6.53
2018-09-27T22:32:58.310Z,9.93
2018-09-27T22:35:32.481Z,6.33
2018-09-27T22:38:06.642Z,9.03
2018-09-27T22:40:40.929Z,6.53
2018-09-27T22:43:15.190Z,6.43
2018-09-27T22:45:49.447Z,7.10
2018-09-27T22:48:23.674Z,10.33
2018-09-27T22:50:58.000Z,8.03
2018-09-27T22:53:32.160Z,7.70
2018-09-27T22:56:06.357Z,5.43
2018-09-27T22:58:40.619Z,9.37
2018-09-27T23:01:14.770Z,8.40
2018-09-27T23:03:48.918Z,8.30
2018-09-27T23:06:23.089Z,6.47
2018-09-27T23:08:57.403Z,8.20
2018-09-27T23:11:33.002Z,12.47
2018-09-27T23:14:07.162Z,9.43
2018-09-27T23:16:41.423Z,8.57
2018-09-27T23:19:15.630Z,9.50
2018-09-27T23:21:49.946Z,9.17
2018-09-27T23:24:24.263Z,10.27
2018-09-27T23:26:58.526Z,10.40
2018-09-27T23:29:32.834Z,8.93
2018-09-27T23:32:07.098Z,11.73
2018-09-27T23:34:41.383Z,9.93
2018-09-27T23:37:15.697Z,10.27
2018-09-27T23:39:49.862Z,11.60
2018-09-27T23:42:24.159Z,9.00
2018-09-27T23:44:58.434Z,10.27
2018-09-27T23:47:32.692Z,10.47
2018-09-27T23:50:06.971Z,11.67
2018-09-27T23:52:41.334Z,12.20
2018-09-27T23:55:15.582Z,10.23
2018-09-27T23:57:49.858Z,11.70
